sensor_id;sensor_type;location;lat;lon;timestamp;P1;durP1;ratioP1;P2;durP2;ratioP2
72156;SDS011;60035;52.122;5.406;2023-01-29T00:01:52;24.15;;;11.52;;
72156;SDS011;60035;52.122;5.406;2023-01-29T00:04:19;24.85;;;10.15;;
72156;SDS011;60035;52.122;5.406;2023-01-29T00:06:46;23.58;;;9.90;;
72156;SDS011;60035;52.122;5.406;2023-01-29T00:09:12;21.92;;;9.55;;
72156;SDS011;60035;52.122;5.406;2023-01-29T00:11:39;24.67;;;11.05;;
72156;SDS011;60035;52.122;5.406;2023-01-29T00:14:06;21.98;;;9.13;;
72156;SDS011;60035;52.122;5.406;2023-01-29T00:16:33;22.77;;;9.52;;
72156;SDS011;60035;52.122;5.406;2023-01-29T00:19:00;26.35;;;9.82;;
72156;SDS011;60035;52.122;5.406;2023-01-29T00:21:27;24.05;;;10.52;;
72156;SDS011;60035;52.122;5.406;2023-01-29T00:23:56;26.02;;;10.63;;
72156;SDS011;60035;52.122;5.406;2023-01-29T00:26:23;25.25;;;10.60;;
72156;SDS011;60035;52.122;5.406;2023-01-29T00:28:50;27.00;;;10.98;;
72156;SDS011;60035;52.122;5.406;2023-01-29T00:31:17;21.88;;;10.18;;
72156;SDS011;60035;52.122;5.406;2023-01-29T00:33:46;24.08;;;9.70;;
72156;SDS011;60035;52.122;5.406;2023-01-29T00:36:14;23.20;;;9.82;;
72156;SDS011;60035;52.122;5.406;2023-01-29T00:38:42;21.95;;;9.43;;
72156;SDS011;60035;52.122;5.406;2023-01-29T00:41:10;23.17;;;9.70;;
72156;SDS011;60035;52.122;5.406;2023-01-29T00:43:58;22.48;;;10.07;;
72156;SDS011;60035;52.122;5.406;2023-01-29T00:46:44;23.65;;;9.60;;
72156;SDS011;60035;52.122;5.406;2023-01-29T00:49:11;25.30;;;10.60;;
72156;SDS011;60035;52.122;5.406;2023-01-29T00:51:38;24.92;;;9.95;;
72156;SDS011;60035;52.122;5.406;2023-01-29T00:54:05;25.30;;;11.60;;
72156;SDS011;60035;52.122;5.406;2023-01-29T00:56:35;23.10;;;9.43;;
72156;SDS011;60035;52.122;5.406;2023-01-29T00:59:02;24.08;;;10.23;;
72156;SDS011;60035;52.122;5.406;2023-01-29T01:01:29;25.15;;;10.35;;
72156;SDS011;60035;52.122;5.406;2023-01-29T01:04:14;20.42;;;9.20;;
72156;SDS011;60035;52.122;5.406;2023-01-29T01:06:42;23.95;;;10.18;;
72156;SDS011;60035;52.122;5.406;2023-01-29T01:09:09;24.13;;;10.35;;
72156;SDS011;60035;52.122;5.406;2023-01-29T01:11:55;22.83;;;9.93;;
72156;SDS011;60035;52.122;5.406;2023-01-29T01:14:21;22.52;;;9.57;;
72156;SDS011;60035;52.122;5.406;2023-01-29T01:16:48;22.48;;;9.32;;
72156;SDS011;60035;52.122;5.406;2023-01-29T01:19:15;24.33;;;9.88;;
72156;SDS011;60035;52.122;5.406;2023-01-29T01:21:42;21.67;;;9.27;;
72156;SDS011;60035;52.122;5.406;2023-01-29T01:24:11;23.55;;;9.02;;
72156;SDS011;60035;52.122;5.406;2023-01-29T01:26:38;22.13;;;9.35;;
72156;SDS011;60035;52.122;5.406;2023-01-29T01:29:05;22.35;;;9.50;;
72156;SDS011;60035;52.122;5.406;2023-01-29T01:31:32;22.83;;;9.82;;
72156;SDS011;60035;52.122;5.406;2023-01-29T01:33:58;24.00;;;11.07;;
72156;SDS011;60035;52.122;5.406;2023-01-29T01:36:25;24.50;;;9.63;;
72156;SDS011;60035;52.122;5.406;2023-01-29T01:38:51;22.92;;;9.52;;
72156;SDS011;60035;52.122;5.406;2023-01-29T01:41:20;22.48;;;9.05;;
72156;SDS011;60035;52.122;5.406;2023-01-29T01:46:15;20.60;;;8.48;;
72156;SDS011;60035;52.122;5.406;2023-01-29T01:48:42;22.90;;;9.32;;
72156;SDS011;60035;52.122;5.406;2023-01-29T01:51:11;24.35;;;9.70;;
72156;SDS011;60035;52.122;5.406;2023-01-29T01:53:42;22.10;;;8.98;;
72156;SDS011;60035;52.122;5.406;2023-01-29T01:56:17;21.42;;;8.93;;
72156;SDS011;60035;52.122;5.406;2023-01-29T01:58:53;22.60;;;10.57;;
72156;SDS011;60035;52.122;5.406;2023-01-29T02:01:22;19.70;;;8.45;;
72156;SDS011;60035;52.122;5.406;2023-01-29T02:04:00;24.48;;;9.57;;
72156;SDS011;60035;52.122;5.406;2023-01-29T02:06:48;24.38;;;9.93;;
72156;SDS011;60035;52.122;5.406;2023-01-29T02:09:38;21.33;;;9.43;;
72156;SDS011;60035;52.122;5.406;2023-01-29T02:12:12;20.98;;;9.40;;
72156;SDS011;60035;52.122;5.406;2023-01-29T02:14:41;22.38;;;9.18;;
72156;SDS011;60035;52.122;5.406;2023-01-29T02:17:10;26.95;;;10.00;;
72156;SDS011;60035;52.122;5.406;2023-01-29T02:30:44;24.90;;;10.07;;
72156;SDS011;60035;52.122;5.406;2023-01-29T02:39:14;21.65;;;8.63;;
72156;SDS011;60035;52.122;5.406;2023-01-29T02:44:37;22.75;;;9.18;;
72156;SDS011;60035;52.122;5.406;2023-01-29T02:47:15;21.95;;;9.40;;
72156;SDS011;60035;52.122;5.406;2023-01-29T02:53:03;26.50;;;11.02;;
72156;SDS011;60035;52.122;5.406;2023-01-29T03:00:53;24.73;;;10.35;;
72156;SDS011;60035;52.122;5.406;2023-01-29T03:06:04;23.48;;;9.88;;
72156;SDS011;60035;52.122;5.406;2023-01-29T03:09:00;25.95;;;10.48;;
72156;SDS011;60035;52.122;5.406;2023-01-29T03:11:38;23.63;;;9.82;;
72156;SDS011;60035;52.122;5.406;2023-01-29T03:14:11;24.00;;;10.00;;
72156;SDS011;60035;52.122;5.406;2023-01-29T03:16:48;26.48;;;9.75;;
72156;SDS011;60035;52.122;5.406;2023-01-29T03:21:54;24.98;;;10.48;;
72156;SDS011;60035;52.122;5.406;2023-01-29T03:30:34;30.55;;;11.27;;
72156;SDS011;60035;52.122;5.406;2023-01-29T03:33:22;25.55;;;10.38;;
72156;SDS011;60035;52.122;5.406;2023-01-29T03:35:55;26.27;;;11.55;;
72156;SDS011;60035;52.122;5.406;2023-01-29T03:38:27;28.50;;;11.43;;
72156;SDS011;60035;52.122;5.406;2023-01-29T03:44:24;25.70;;;11.63;;
72156;SDS011;60035;52.122;5.406;2023-01-29T03:55:39;26.42;;;11.07;;
72156;SDS011;60035;52.122;5.406;2023-01-29T04:03:39;29.33;;;10.45;;
72156;SDS011;60035;52.122;5.406;2023-01-29T04:09:00;26.60;;;11.60;;
72156;SDS011;60035;52.122;5.406;2023-01-29T04:11:32;26.65;;;11.85;;
72156;SDS011;60035;52.122;5.406;2023-01-29T04:14:02;28.08;;;13.90;;
72156;SDS011;60035;52.122;5.406;2023-01-29T04:16:34;24.85;;;11.18;;
72156;SDS011;60035;52.122;5.406;2023-01-29T04:19:05;28.10;;;11.77;;
72156;SDS011;60035;52.122;5.406;2023-01-29T04:21:33;29.92;;;12.25;;
72156;SDS011;60035;52.122;5.406;2023-01-29T04:24:03;24.00;;;10.55;;
72156;SDS011;60035;52.122;5.406;2023-01-29T04:34:37;28.10;;;11.52;;
72156;SDS011;60035;52.122;5.406;2023-01-29T04:40:28;29.17;;;12.88;;
72156;SDS011;60035;52.122;5.406;2023-01-29T04:53:48;24.33;;;10.63;;
72156;SDS011;60035;52.122;5.406;2023-01-29T04:56:25;26.63;;;11.60;;
72156;SDS011;60035;52.122;5.406;2023-01-29T04:59:02;28.25;;;11.32;;
72156;SDS011;60035;52.122;5.406;2023-01-29T05:01:32;27.90;;;11.98;;
72156;SDS011;60035;52.122;5.406;2023-01-29T05:04:02;28.40;;;11.98;;
72156;SDS011;60035;52.122;5.406;2023-01-29T05:06:32;25.33;;;10.80;;
72156;SDS011;60035;52.122;5.406;2023-01-29T05:09:01;28.58;;;12.27;;
72156;SDS011;60035;52.122;5.406;2023-01-29T05:11:29;29.45;;;12.43;;
72156;SDS011;60035;52.122;5.406;2023-01-29T05:13:58;30.98;;;11.82;;
72156;SDS011;60035;52.122;5.406;2023-01-29T05:16:29;24.50;;;11.15;;
72156;SDS011;60035;52.122;5.406;2023-01-29T05:19:10;30.17;;;12.07;;
72156;SDS011;60035;52.122;5.406;2023-01-29T05:21:39;26.88;;;12.02;;
72156;SDS011;60035;52.122;5.406;2023-01-29T05:24:16;26.92;;;12.38;;
72156;SDS011;60035;52.122;5.406;2023-01-29T05:26:45;25.63;;;11.55;;
72156;SDS011;60035;52.122;5.406;2023-01-29T05:29:32;27.27;;;12.32;;
72156;SDS011;60035;52.122;5.406;2023-01-29T05:31:59;29.30;;;14.05;;
72156;SDS011;60035;52.122;5.406;2023-01-29T05:34:26;28.77;;;11.35;;
72156;SDS011;60035;52.122;5.406;2023-01-29T05:36:52;30.67;;;11.98;;
72156;SDS011;60035;52.122;5.406;2023-01-29T05:39:19;28.40;;;12.25;;
72156;SDS011;60035;52.122;5.406;2023-01-29T05:41:46;26.15;;;11.25;;
72156;SDS011;60035;52.122;5.406;2023-01-29T05:44:12;29.25;;;13.32;;
72156;SDS011;60035;52.122;5.406;2023-01-29T05:46:39;29.13;;;14.00;;
72156;SDS011;60035;52.122;5.406;2023-01-29T05:49:06;27.67;;;11.90;;
72156;SDS011;60035;52.122;5.406;2023-01-29T05:51:32;28.58;;;12.57;;
72156;SDS011;60035;52.122;5.406;2023-01-29T05:53:59;25.80;;;10.88;;
72156;SDS011;60035;52.122;5.406;2023-01-29T05:56:27;26.33;;;11.52;;
72156;SDS011;60035;52.122;5.406;2023-01-29T05:58:54;28.95;;;12.63;;
72156;SDS011;60035;52.122;5.406;2023-01-29T06:01:22;27.70;;;13.70;;
72156;SDS011;60035;52.122;5.406;2023-01-29T06:03:50;24.88;;;12.27;;
72156;SDS011;60035;52.122;5.406;2023-01-29T06:06:17;27.13;;;12.73;;
72156;SDS011;60035;52.122;5.406;2023-01-29T06:08:44;25.48;;;11.13;;
72156;SDS011;60035;52.122;5.406;2023-01-29T06:11:11;29.27;;;13.93;;
72156;SDS011;60035;52.122;5.406;2023-01-29T06:13:39;28.70;;;12.18;;
72156;SDS011;60035;52.122;5.406;2023-01-29T06:16:06;27.63;;;11.82;;
72156;SDS011;60035;52.122;5.406;2023-01-29T06:18:37;27.77;;;13.38;;
72156;SDS011;60035;52.122;5.406;2023-01-29T06:21:06;28.00;;;12.02;;
72156;SDS011;60035;52.122;5.406;2023-01-29T06:23:35;27.45;;;11.30;;
72156;SDS011;60035;52.122;5.406;2023-01-29T06:26:03;26.08;;;11.60;;
72156;SDS011;60035;52.122;5.406;2023-01-29T06:28:34;33.05;;;13.57;;
72156;SDS011;60035;52.122;5.406;2023-01-29T06:31:01;27.92;;;12.77;;
72156;SDS011;60035;52.122;5.406;2023-01-29T06:33:49;26.95;;;12.55;;
72156;SDS011;60035;52.122;5.406;2023-01-29T06:36:16;24.85;;;10.88;;
72156;SDS011;60035;52.122;5.406;2023-01-29T06:38:42;26.90;;;11.55;;
72156;SDS011;60035;52.122;5.406;2023-01-29T06:41:10;27.13;;;11.25;;
72156;SDS011;60035;52.122;5.406;2023-01-29T06:43:38;26.67;;;12.68;;
72156;SDS011;60035;52.122;5.406;2023-01-29T06:46:06;25.00;;;11.15;;
72156;SDS011;60035;52.122;5.406;2023-01-29T06:48:33;25.52;;;10.98;;
72156;SDS011;60035;52.122;5.406;2023-01-29T06:51:03;23.70;;;10.75;;
72156;SDS011;60035;52.122;5.406;2023-01-29T06:53:32;28.15;;;11.82;;
72156;SDS011;60035;52.122;5.406;2023-01-29T06:55:59;26.25;;;12.15;;
72156;SDS011;60035;52.122;5.406;2023-01-29T06:58:26;27.42;;;11.02;;
72156;SDS011;60035;52.122;5.406;2023-01-29T07:00:52;26.77;;;12.52;;
72156;SDS011;60035;52.122;5.406;2023-01-29T07:03:19;23.95;;;11.23;;
72156;SDS011;60035;52.122;5.406;2023-01-29T07:05:50;25.83;;;12.27;;
72156;SDS011;60035;52.122;5.406;2023-01-29T07:08:18;25.52;;;11.80;;
72156;SDS011;60035;52.122;5.406;2023-01-29T07:10:48;25.15;;;12.85;;
72156;SDS011;60035;52.122;5.406;2023-01-29T07:13:18;26.95;;;11.23;;
72156;SDS011;60035;52.122;5.406;2023-01-29T07:15:44;25.95;;;11.65;;
72156;SDS011;60035;52.122;5.406;2023-01-29T07:18:11;23.48;;;11.90;;
72156;SDS011;60035;52.122;5.406;2023-01-29T07:20:38;24.23;;;11.40;;
72156;SDS011;60035;52.122;5.406;2023-01-29T07:23:06;29.67;;;12.57;;
72156;SDS011;60035;52.122;5.406;2023-01-29T07:25:36;26.13;;;12.40;;
72156;SDS011;60035;52.122;5.406;2023-01-29T07:28:03;28.30;;;11.10;;
72156;SDS011;60035;52.122;5.406;2023-01-29T07:30:30;25.63;;;12.48;;
72156;SDS011;60035;52.122;5.406;2023-01-29T07:33:15;28.00;;;12.10;;
72156;SDS011;60035;52.122;5.406;2023-01-29T07:35:42;27.67;;;12.43;;
72156;SDS011;60035;52.122;5.406;2023-01-29T07:38:09;25.00;;;10.63;;
72156;SDS011;60035;52.122;5.406;2023-01-29T07:40:39;27.05;;;11.80;;
72156;SDS011;60035;52.122;5.406;2023-01-29T07:43:06;24.15;;;10.32;;
72156;SDS011;60035;52.122;5.406;2023-01-29T07:45:37;24.95;;;11.02;;
72156;SDS011;60035;52.122;5.406;2023-01-29T07:48:05;23.10;;;10.65;;
72156;SDS011;60035;52.122;5.406;2023-01-29T07:50:35;23.55;;;10.50;;
72156;SDS011;60035;52.122;5.406;2023-01-29T07:53:02;25.52;;;12.05;;
72156;SDS011;60035;52.122;5.406;2023-01-29T07:55:29;24.90;;;11.05;;
72156;SDS011;60035;52.122;5.406;2023-01-29T07:57:56;23.75;;;11.95;;
72156;SDS011;60035;52.122;5.406;2023-01-29T08:00:23;25.70;;;10.20;;
72156;SDS011;60035;52.122;5.406;2023-01-29T08:02:50;23.75;;;10.80;;
72156;SDS011;60035;52.122;5.406;2023-01-29T08:05:17;26.27;;;12.63;;
72156;SDS011;60035;52.122;5.406;2023-01-29T08:07:44;23.45;;;10.82;;
72156;SDS011;60035;52.122;5.406;2023-01-29T08:10:22;23.45;;;11.23;;
72156;SDS011;60035;52.122;5.406;2023-01-29T08:12:54;22.25;;;11.15;;
72156;SDS011;60035;52.122;5.406;2023-01-29T08:15:25;25.60;;;11.48;;
72156;SDS011;60035;52.122;5.406;2023-01-29T08:17:53;26.23;;;12.00;;
72156;SDS011;60035;52.122;5.406;2023-01-29T08:20:23;26.13;;;11.43;;
72156;SDS011;60035;52.122;5.406;2023-01-29T08:22:57;25.20;;;10.65;;
72156;SDS011;60035;52.122;5.406;2023-01-29T08:25:25;24.77;;;11.32;;
72156;SDS011;60035;52.122;5.406;2023-01-29T08:27:52;21.83;;;11.57;;
72156;SDS011;60035;52.122;5.406;2023-01-29T08:30:19;24.65;;;10.70;;
72156;SDS011;60035;52.122;5.406;2023-01-29T08:32:45;23.02;;;11.05;;
72156;SDS011;60035;52.122;5.406;2023-01-29T08:35:12;22.67;;;10.48;;
72156;SDS011;60035;52.122;5.406;2023-01-29T08:37:39;22.63;;;10.80;;
72156;SDS011;60035;52.122;5.406;2023-01-29T08:40:05;23.13;;;10.27;;
72156;SDS011;60035;52.122;5.406;2023-01-29T08:42:34;26.85;;;10.63;;
72156;SDS011;60035;52.122;5.406;2023-01-29T08:45:01;28.23;;;11.38;;
72156;SDS011;60035;52.122;5.406;2023-01-29T08:47:30;23.23;;;10.80;;
72156;SDS011;60035;52.122;5.406;2023-01-29T08:49:56;24.40;;;12.80;;
72156;SDS011;60035;52.122;5.406;2023-01-29T08:52:23;22.73;;;10.63;;
72156;SDS011;60035;52.122;5.406;2023-01-29T08:54:50;25.10;;;11.77;;
72156;SDS011;60035;52.122;5.406;2023-01-29T08:57:16;25.05;;;10.80;;
72156;SDS011;60035;52.122;5.406;2023-01-29T08:59:43;21.25;;;10.57;;
72156;SDS011;60035;52.122;5.406;2023-01-29T09:02:09;22.95;;;12.15;;
72156;SDS011;60035;52.122;5.406;2023-01-29T09:04:37;26.20;;;12.13;;
72156;SDS011;60035;52.122;5.406;2023-01-29T09:07:03;23.45;;;10.65;;
72156;SDS011;60035;52.122;5.406;2023-01-29T09:09:30;23.90;;;12.27;;
72156;SDS011;60035;52.122;5.406;2023-01-29T09:11:57;23.45;;;10.57;;
72156;SDS011;60035;52.122;5.406;2023-01-29T09:14:24;23.15;;;10.77;;
72156;SDS011;60035;52.122;5.406;2023-01-29T09:16:50;24.40;;;12.70;;
72156;SDS011;60035;52.122;5.406;2023-01-29T09:19:17;26.42;;;12.02;;
72156;SDS011;60035;52.122;5.406;2023-01-29T09:21:43;23.23;;;11.32;;
72156;SDS011;60035;52.122;5.406;2023-01-29T09:24:10;26.77;;;11.38;;
72156;SDS011;60035;52.122;5.406;2023-01-29T09:26:37;22.52;;;10.02;;
72156;SDS011;60035;52.122;5.406;2023-01-29T09:29:05;24.88;;;10.63;;
72156;SDS011;60035;52.122;5.406;2023-01-29T09:31:32;24.98;;;12.68;;
72156;SDS011;60035;52.122;5.406;2023-01-29T09:33:58;24.48;;;11.63;;
72156;SDS011;60035;52.122;5.406;2023-01-29T09:36:25;23.33;;;10.05;;
72156;SDS011;60035;52.122;5.406;2023-01-29T09:38:52;27.23;;;12.18;;
72156;SDS011;60035;52.122;5.406;2023-01-29T09:41:40;23.02;;;11.80;;
72156;SDS011;60035;52.122;5.406;2023-01-29T09:47:13;24.80;;;11.98;;
72156;SDS011;60035;52.122;5.406;2023-01-29T09:49:44;26.20;;;10.63;;
72156;SDS011;60035;52.122;5.406;2023-01-29T09:57:45;21.05;;;10.02;;
72156;SDS011;60035;52.122;5.406;2023-01-29T10:00:37;29.05;;;12.38;;
72156;SDS011;60035;52.122;5.406;2023-01-29T10:15:22;23.23;;;11.63;;
72156;SDS011;60035;52.122;5.406;2023-01-29T10:21:06;26.92;;;12.18;;
72156;SDS011;60035;52.122;5.406;2023-01-29T10:23:37;27.17;;;12.60;;
72156;SDS011;60035;52.122;5.406;2023-01-29T10:26:11;27.15;;;12.90;;
72156;SDS011;60035;52.122;5.406;2023-01-29T10:28:43;21.20;;;10.60;;
72156;SDS011;60035;52.122;5.406;2023-01-29T10:31:21;25.17;;;12.38;;
72156;SDS011;60035;52.122;5.406;2023-01-29T10:33:51;25.23;;;10.77;;
72156;SDS011;60035;52.122;5.406;2023-01-29T10:39:26;25.63;;;10.88;;
72156;SDS011;60035;52.122;5.406;2023-01-29T10:44:36;25.80;;;12.05;;
72156;SDS011;60035;52.122;5.406;2023-01-29T10:47:22;26.00;;;12.43;;
72156;SDS011;60035;52.122;5.406;2023-01-29T10:50:15;24.30;;;10.68;;
72156;SDS011;60035;52.122;5.406;2023-01-29T10:55:28;25.83;;;12.85;;
72156;SDS011;60035;52.122;5.406;2023-01-29T10:58:13;25.00;;;13.35;;
72156;SDS011;60035;52.122;5.406;2023-01-29T11:00:58;27.85;;;13.93;;
72156;SDS011;60035;52.122;5.406;2023-01-29T11:08:35;25.45;;;11.13;;
72156;SDS011;60035;52.122;5.406;2023-01-29T11:13:59;26.70;;;13.73;;
72156;SDS011;60035;52.122;5.406;2023-01-29T11:16:42;29.60;;;12.13;;
72156;SDS011;60035;52.122;5.406;2023-01-29T11:19:15;27.63;;;12.10;;
72156;SDS011;60035;52.122;5.406;2023-01-29T11:21:52;29.55;;;12.00;;
72156;SDS011;60035;52.122;5.406;2023-01-29T11:24:23;24.30;;;11.18;;
72156;SDS011;60035;52.122;5.406;2023-01-29T11:26:57;24.90;;;11.25;;
72156;SDS011;60035;52.122;5.406;2023-01-29T11:29:32;28.10;;;13.43;;
72156;SDS011;60035;52.122;5.406;2023-01-29T11:32:05;31.77;;;13.02;;
72156;SDS011;60035;52.122;5.406;2023-01-29T11:34:54;22.98;;;10.63;;
72156;SDS011;60035;52.122;5.406;2023-01-29T11:37:21;28.15;;;12.55;;
72156;SDS011;60035;52.122;5.406;2023-01-29T11:39:49;29.42;;;13.10;;
72156;SDS011;60035;52.122;5.406;2023-01-29T11:42:19;29.60;;;12.75;;
72156;SDS011;60035;52.122;5.406;2023-01-29T11:44:47;31.88;;;14.30;;
72156;SDS011;60035;52.122;5.406;2023-01-29T11:49:51;29.10;;;13.95;;
72156;SDS011;60035;52.122;5.406;2023-01-29T11:52:21;28.85;;;13.48;;
72156;SDS011;60035;52.122;5.406;2023-01-29T11:54:52;32.42;;;13.63;;
72156;SDS011;60035;52.122;5.406;2023-01-29T11:57:26;28.35;;;12.05;;
72156;SDS011;60035;52.122;5.406;2023-01-29T11:59:56;27.52;;;12.93;;
72156;SDS011;60035;52.122;5.406;2023-01-29T12:02:30;30.33;;;13.45;;
72156;SDS011;60035;52.122;5.406;2023-01-29T12:05:03;30.45;;;13.55;;
72156;SDS011;60035;52.122;5.406;2023-01-29T12:07:40;29.85;;;13.90;;
72156;SDS011;60035;52.122;5.406;2023-01-29T12:10:26;31.08;;;13.00;;
72156;SDS011;60035;52.122;5.406;2023-01-29T12:13:06;23.60;;;11.10;;
72156;SDS011;60035;52.122;5.406;2023-01-29T12:15:47;29.45;;;12.73;;
72156;SDS011;60035;52.122;5.406;2023-01-29T12:20:45;27.52;;;12.40;;
72156;SDS011;60035;52.122;5.406;2023-01-29T12:26:09;33.85;;;15.27;;
72156;SDS011;60035;52.122;5.406;2023-01-29T12:31:50;29.90;;;14.32;;
72156;SDS011;60035;52.122;5.406;2023-01-29T12:34:36;34.80;;;15.70;;
72156;SDS011;60035;52.122;5.406;2023-01-29T12:37:21;30.80;;;14.07;;
72156;SDS011;60035;52.122;5.406;2023-01-29T12:39:55;30.48;;;13.70;;
72156;SDS011;60035;52.122;5.406;2023-01-29T12:42:22;30.08;;;12.60;;
72156;SDS011;60035;52.122;5.406;2023-01-29T12:44:54;28.90;;;13.23;;
72156;SDS011;60035;52.122;5.406;2023-01-29T12:47:30;28.80;;;11.63;;
72156;SDS011;60035;52.122;5.406;2023-01-29T12:50:04;31.45;;;13.00;;
72156;SDS011;60035;52.122;5.406;2023-01-29T12:52:59;33.08;;;13.70;;
72156;SDS011;60035;52.122;5.406;2023-01-29T12:55:27;34.70;;;14.85;;
72156;SDS011;60035;52.122;5.406;2023-01-29T12:58:02;34.30;;;14.68;;
72156;SDS011;60035;52.122;5.406;2023-01-29T13:00:35;34.53;;;15.60;;
72156;SDS011;60035;52.122;5.406;2023-01-29T13:05:51;30.42;;;14.23;;
72156;SDS011;60035;52.122;5.406;2023-01-29T13:10:54;31.40;;;14.35;;
72156;SDS011;60035;52.122;5.406;2023-01-29T13:13:26;34.20;;;15.38;;
72156;SDS011;60035;52.122;5.406;2023-01-29T13:15:58;35.20;;;17.65;;
72156;SDS011;60035;52.122;5.406;2023-01-29T13:18:39;34.35;;;16.38;;
72156;SDS011;60035;52.122;5.406;2023-01-29T13:21:11;32.08;;;14.57;;
72156;SDS011;60035;52.122;5.406;2023-01-29T13:23:47;34.53;;;15.55;;
72156;SDS011;60035;52.122;5.406;2023-01-29T13:26:17;33.13;;;14.95;;
72156;SDS011;60035;52.122;5.406;2023-01-29T13:28:45;36.95;;;14.23;;
72156;SDS011;60035;52.122;5.406;2023-01-29T13:31:17;29.10;;;13.55;;
72156;SDS011;60035;52.122;5.406;2023-01-29T13:33:50;28.52;;;12.48;;
72156;SDS011;60035;52.122;5.406;2023-01-29T13:36:23;33.70;;;15.02;;
72156;SDS011;60035;52.122;5.406;2023-01-29T13:39:06;31.13;;;13.95;;
72156;SDS011;60035;52.122;5.406;2023-01-29T13:41:42;28.80;;;13.90;;
72156;SDS011;60035;52.122;5.406;2023-01-29T13:47:05;29.63;;;13.30;;
72156;SDS011;60035;52.122;5.406;2023-01-29T13:49:39;35.83;;;14.82;;
72156;SDS011;60035;52.122;5.406;2023-01-29T13:55:03;31.42;;;15.80;;
72156;SDS011;60035;52.122;5.406;2023-01-29T13:57:50;31.05;;;14.68;;
72156;SDS011;60035;52.122;5.406;2023-01-29T14:07:56;30.10;;;13.27;;
72156;SDS011;60035;52.122;5.406;2023-01-29T14:10:25;30.23;;;13.45;;
72156;SDS011;60035;52.122;5.406;2023-01-29T14:13:18;29.83;;;14.02;;
72156;SDS011;60035;52.122;5.406;2023-01-29T14:18:24;23.77;;;11.27;;
72156;SDS011;60035;52.122;5.406;2023-01-29T14:20:55;27.08;;;12.05;;
72156;SDS011;60035;52.122;5.406;2023-01-29T14:23:45;28.48;;;13.70;;
72156;SDS011;60035;52.122;5.406;2023-01-29T14:29:01;28.98;;;12.77;;
72156;SDS011;60035;52.122;5.406;2023-01-29T14:31:29;27.88;;;12.48;;
72156;SDS011;60035;52.122;5.406;2023-01-29T14:34:01;28.73;;;13.55;;
72156;SDS011;60035;52.122;5.406;2023-01-29T14:36:36;29.08;;;12.82;;
72156;SDS011;60035;52.122;5.406;2023-01-29T14:39:05;31.23;;;14.88;;
72156;SDS011;60035;52.122;5.406;2023-01-29T14:41:32;27.55;;;13.32;;
72156;SDS011;60035;52.122;5.406;2023-01-29T14:47:07;32.28;;;13.48;;
72156;SDS011;60035;52.122;5.406;2023-01-29T14:49:47;34.57;;;16.22;;
72156;SDS011;60035;52.122;5.406;2023-01-29T14:52:14;25.98;;;12.70;;
72156;SDS011;60035;52.122;5.406;2023-01-29T14:54:44;30.08;;;13.90;;
72156;SDS011;60035;52.122;5.406;2023-01-29T14:57:14;23.77;;;11.00;;
72156;SDS011;60035;52.122;5.406;2023-01-29T15:02:19;29.17;;;12.40;;
72156;SDS011;60035;52.122;5.406;2023-01-29T15:04:53;28.75;;;12.85;;
72156;SDS011;60035;52.122;5.406;2023-01-29T15:07:28;28.33;;;12.00;;
72156;SDS011;60035;52.122;5.406;2023-01-29T15:09:59;30.55;;;12.23;;
72156;SDS011;60035;52.122;5.406;2023-01-29T15:12:48;30.25;;;12.57;;
72156;SDS011;60035;52.122;5.406;2023-01-29T15:18:02;29.60;;;12.52;;
72156;SDS011;60035;52.122;5.406;2023-01-29T15:20:34;28.80;;;13.98;;
72156;SDS011;60035;52.122;5.406;2023-01-29T15:23:03;27.38;;;12.25;;
72156;SDS011;60035;52.122;5.406;2023-01-29T15:25:49;26.38;;;11.32;;
72156;SDS011;60035;52.122;5.406;2023-01-29T15:28:17;29.70;;;14.52;;
72156;SDS011;60035;52.122;5.406;2023-01-29T15:30:48;29.05;;;12.82;;
72156;SDS011;60035;52.122;5.406;2023-01-29T15:33:19;27.15;;;11.90;;
72156;SDS011;60035;52.122;5.406;2023-01-29T15:35:46;29.02;;;13.00;;
72156;SDS011;60035;52.122;5.406;2023-01-29T15:38:21;30.23;;;12.30;;
72156;SDS011;60035;52.122;5.406;2023-01-29T15:40:59;28.05;;;12.20;;
72156;SDS011;60035;52.122;5.406;2023-01-29T15:43:34;24.33;;;12.80;;
72156;SDS011;60035;52.122;5.406;2023-01-29T15:46:15;28.30;;;11.82;;
72156;SDS011;60035;52.122;5.406;2023-01-29T15:51:21;27.08;;;11.18;;
72156;SDS011;60035;52.122;5.406;2023-01-29T15:53:52;25.40;;;10.65;;
72156;SDS011;60035;52.122;5.406;2023-01-29T15:56:23;29.50;;;12.80;;
72156;SDS011;60035;52.122;5.406;2023-01-29T15:58:56;27.13;;;11.07;;
72156;SDS011;60035;52.122;5.406;2023-01-29T16:01:26;25.30;;;11.32;;
72156;SDS011;60035;52.122;5.406;2023-01-29T16:03:54;27.67;;;11.40;;
72156;SDS011;60035;52.122;5.406;2023-01-29T16:06:33;27.73;;;13.07;;
72156;SDS011;60035;52.122;5.406;2023-01-29T16:09:04;28.52;;;13.18;;
72156;SDS011;60035;52.122;5.406;2023-01-29T16:11:33;28.55;;;12.45;;
72156;SDS011;60035;52.122;5.406;2023-01-29T16:14:00;29.00;;;13.15;;
72156;SDS011;60035;52.122;5.406;2023-01-29T16:16:28;34.78;;;16.75;;
72156;SDS011;60035;52.122;5.406;2023-01-29T16:18:55;29.67;;;13.10;;
72156;SDS011;60035;52.122;5.406;2023-01-29T16:21:34;27.65;;;10.88;;
72156;SDS011;60035;52.122;5.406;2023-01-29T16:24:05;26.58;;;12.35;;
72156;SDS011;60035;52.122;5.406;2023-01-29T16:26:38;32.72;;;12.85;;
72156;SDS011;60035;52.122;5.406;2023-01-29T16:29:10;29.52;;;12.10;;
72156;SDS011;60035;52.122;5.406;2023-01-29T16:31:47;28.25;;;12.65;;
72156;SDS011;60035;52.122;5.406;2023-01-29T16:34:28;26.50;;;11.57;;
72156;SDS011;60035;52.122;5.406;2023-01-29T16:37:00;27.83;;;11.80;;
72156;SDS011;60035;52.122;5.406;2023-01-29T16:39:31;25.77;;;10.90;;
72156;SDS011;60035;52.122;5.406;2023-01-29T16:45:04;26.27;;;11.25;;
72156;SDS011;60035;52.122;5.406;2023-01-29T16:50:22;27.02;;;10.68;;
72156;SDS011;60035;52.122;5.406;2023-01-29T16:53:18;34.65;;;14.63;;
72156;SDS011;60035;52.122;5.406;2023-01-29T16:55:48;27.25;;;12.70;;
72156;SDS011;60035;52.122;5.406;2023-01-29T16:58:24;32.30;;;14.20;;
72156;SDS011;60035;52.122;5.406;2023-01-29T17:00:57;29.90;;;12.20;;
72156;SDS011;60035;52.122;5.406;2023-01-29T17:03:27;28.92;;;13.43;;
72156;SDS011;60035;52.122;5.406;2023-01-29T17:05:58;30.33;;;13.30;;
72156;SDS011;60035;52.122;5.406;2023-01-29T17:08:33;30.67;;;14.55;;
72156;SDS011;60035;52.122;5.406;2023-01-29T17:11:00;36.58;;;15.70;;
72156;SDS011;60035;52.122;5.406;2023-01-29T17:13:38;37.92;;;15.65;;
72156;SDS011;60035;52.122;5.406;2023-01-29T17:18:54;31.48;;;13.80;;
72156;SDS011;60035;52.122;5.406;2023-01-29T17:21:21;31.00;;;12.68;;
72156;SDS011;60035;52.122;5.406;2023-01-29T17:23:48;23.92;;;11.00;;
72156;SDS011;60035;52.122;5.406;2023-01-29T17:26:15;32.15;;;14.07;;
72156;SDS011;60035;52.122;5.406;2023-01-29T17:28:43;28.52;;;12.65;;
72156;SDS011;60035;52.122;5.406;2023-01-29T17:31:10;30.25;;;13.07;;
72156;SDS011;60035;52.122;5.406;2023-01-29T17:33:38;33.97;;;13.77;;
72156;SDS011;60035;52.122;5.406;2023-01-29T17:36:09;28.45;;;11.02;;
72156;SDS011;60035;52.122;5.406;2023-01-29T17:38:38;34.92;;;14.32;;
72156;SDS011;60035;52.122;5.406;2023-01-29T17:41:07;34.00;;;14.73;;
72156;SDS011;60035;52.122;5.406;2023-01-29T17:43:39;36.95;;;16.55;;
72156;SDS011;60035;52.122;5.406;2023-01-29T17:46:08;34.20;;;13.95;;
72156;SDS011;60035;52.122;5.406;2023-01-29T17:48:38;33.30;;;13.77;;